Huvudsida
METAR-TAF:

METAR-TAF

Flygplatser :

Arrachart Airport

Antsiranana, Madagaskar

latitud: 12-21S, longitud: 049-18E, höjd: 114 m

Aktuellt väderrapport

Denna rapport gjordes för 6 timmar och 29 minuter sedan, klockan 15:00 UTC
Vind 6 kt från väst
Temperatur 28°C
Fuktighet 79%
Tryck 1009 hPa
Sikt 10 km eller mer
Spridda moln på en höjd av 2000 ft

METAR: FMNA 191500Z 26006KT 9999 SCT020 28/24 Q1009

Tid: 00:29 (21:29 UTC)

Väderprognos

Denna rapport gjordes för 4 timmar och 29 minuter sedan, klockan 17:00 UTC
Prognos gäller från 19 kl. 18 UTC till 20 kl. 18 UTC
Vind 10 kt från väst
Sikt 10 km eller mer
Spridda moln på en höjd av 2000 ft
Sannolikhet 40% :
Temporärt
från 19 kl. 18 UTC till 19 kl. 20 UTC
Sikt: 4500 m
regn
Sannolikhet 30% :
Temporärt
från 20 kl. 03 UTC till 20 kl. 18 UTC
Sikt: 4500 m
regn

TAF: FMNA 191700Z 1918/2018 28010KT 9999 SCT020 PROB40 TEMPO 1918/1920 4500 RA PROB30 TEMPO 2003/2018 4500 RA

Aktuella väderrapporter och prognoser från 4000 flygplatser (METAR- och TAF-rapporter).

De tillgängliga stationerna syns som gula och röda prickar på kartan.

För musen över prickarna för att se namnen på stationerna.

Klicka sedan för att få väderrapporter och prognoser.

För att ändra kartan: Klicka på de gröna knapparna med ett svart kors på för att zooma in; den gröna knappen med ett streck på för att zooma ut; eller på de gröna pilarna för angränsande kartor.


METAR-TAF: